Time;durP1;ratioP1;P1;durP2;ratioP2;P2;SDS_P1;SDS_P2;PMS_P1;PMS_P2;Temp;Humidity;BMP_temperature;BMP_pressure;BME280_temperature;BME280_humidity;BME280_pressure;Samples;Min_cycle;Max_cycle;Signal;HPM_P1;HPM_P2
2021/12/09 00:01:51;;;;;;;194.10;87.20;;;;;;;-1.79;100.00;94353.13;5090205;28;20812;-77
2021/12/09 00:04:26;;;;;;;203.20;91.57;;;;;;;-1.75;100.00;94356.16;5090326;28;20196;-77
2021/12/09 00:06:58;;;;;;;202.30;92.37;;;;;;;-1.80;100.00;94359.19;5091271;28;20287;-79
2021/12/09 00:09:27;;;;;;;195.90;88.33;;;;;;;-1.95;100.00;94345.41;5092435;28;20205;-78
2021/12/09 00:11:59;;;;;;;199.07;91.87;;;;;;;-1.98;100.00;94332.97;5090722;28;20225;-76
2021/12/09 00:14:30;;;;;;;206.80;91.80;;;;;;;-1.99;100.00;94333.13;5091113;28;20196;-77
2021/12/09 00:17:01;;;;;;;190.53;86.27;;;;;;;-1.91;100.00;94348.44;5091078;28;20192;-77
2021/12/09 00:19:31;;;;;;;185.57;85.23;;;;;;;-1.95;100.00;94342.84;5091045;28;20660;-83
2021/12/09 00:22:04;;;;;;;192.17;85.77;;;;;;;-2.13;100.00;94310.75;5092375;28;20197;-79
2021/12/09 00:24:32;;;;;;;188.23;83.27;;;;;;;-2.00;100.00;94319.59;5092117;28;20193;-76
2021/12/09 00:27:01;;;;;;;196.47;81.63;;;;;;;-1.99;100.00;94326.28;5090327;28;20209;-77
2021/12/09 00:29:33;;;;;;;176.13;81.17;;;;;;;-1.94;100.00;94336.81;5090098;28;20200;-78
2021/12/09 00:32:11;;;;;;;158.37;70.73;;;;;;;-1.89;100.00;94321.91;5090692;28;20225;-78
2021/12/09 00:34:42;;;;;;;147.13;64.70;;;;;;;-1.83;100.00;94323.84;5090785;28;20728;-78
2021/12/09 00:37:20;;;;;;;167.03;72.97;;;;;;;-1.83;100.00;94315.41;5090525;28;20204;-78
2021/12/09 00:39:52;;;;;;;164.13;73.80;;;;;;;-1.94;100.00;94306.28;5086139;28;20240;-78
2021/12/09 00:42:24;;;;;;;165.10;72.33;;;;;;;-1.97;100.00;94304.03;5089275;28;20285;-77
2021/12/09 00:44:56;;;;;;;157.03;70.03;;;;;;;-1.89;100.00;94310.91;5084860;28;20201;-79
2021/12/09 00:47:28;;;;;;;159.83;71.77;;;;;;;-1.80;100.00;94305.72;5077181;28;20211;-78
2021/12/09 00:49:57;;;;;;;161.00;73.53;;;;;;;-1.75;100.00;94316.22;5084076;28;20697;-78
2021/12/09 00:52:27;;;;;;;148.50;67.00;;;;;;;-1.85;100.00;94302.03;5083977;28;20221;-78
2021/12/09 00:54:58;;;;;;;156.30;69.57;;;;;;;-1.69;100.00;94311.47;5083692;28;20224;-77
2021/12/09 00:57:28;;;;;;;150.03;68.73;;;;;;;-1.66;100.00;94308.63;5083855;28;20230;-78
2021/12/09 01:00:01;;;;;;;148.80;67.27;;;;;;;-1.67;100.00;94309.59;5086287;28;20219;-78
2021/12/09 01:02:33;;;;;;;142.53;66.80;;;;;;;-1.65;100.00;94308.50;5090228;28;20197;-78
2021/12/09 01:05:05;;;;;;;129.17;58.43;;;;;;;-1.60;100.00;94308.03;5090633;28;20645;-79
2021/12/09 01:07:34;;;;;;;117.90;55.13;;;;;;;-1.64;100.00;94314.34;5090342;28;20209;-79
2021/12/09 01:10:05;;;;;;;130.83;55.83;;;;;;;-1.58;100.00;94319.66;5090126;28;20283;-79
2021/12/09 01:12:33;;;;;;;130.07;57.73;;;;;;;-1.49;100.00;94330.66;5085451;28;20227;-78
2021/12/09 01:15:03;;;;;;;133.73;60.43;;;;;;;-1.43;100.00;94328.31;5090300;28;20209;-77
2021/12/09 01:17:33;;;;;;;132.07;60.90;;;;;;;-1.48;100.00;94322.09;5083380;28;20212;-77
2021/12/09 01:20:06;;;;;;;133.73;61.70;;;;;;;-1.43;100.00;94317.31;5089707;28;20601;-77
2021/12/09 01:22:39;;;;;;;122.23;56.40;;;;;;;-1.42;100.00;94309.53;5089503;28;20260;-77
2021/12/09 01:25:10;;;;;;;115.33;52.93;;;;;;;-1.38;100.00;94315.91;5089664;28;20205;-77
2021/12/09 01:27:41;;;;;;;114.00;51.93;;;;;;;-1.38;100.00;94313.34;5089068;28;20207;-77
2021/12/09 01:30:17;;;;;;;117.10;51.67;;;;;;;-1.40;100.00;94320.38;5089792;28;20231;-77
2021/12/09 01:32:52;;;;;;;117.67;51.53;;;;;;;-1.37;100.00;94317.50;5083017;28;20223;-78
2021/12/09 01:35:24;;;;;;;112.03;50.87;;;;;;;-1.37;100.00;94316.72;5089992;28;20200;-77
2021/12/09 01:37:56;;;;;;;116.90;51.73;;;;;;;-1.37;100.00;94330.25;5090228;28;20303;-77
2021/12/09 01:40:26;;;;;;;108.93;50.10;;;;;;;-1.46;100.00;94330.38;5087797;28;20630;-78
2021/12/09 01:42:55;;;;;;;119.87;51.97;;;;;;;-1.47;100.00;94311.72;5084593;28;20255;-78
2021/12/09 01:45:28;;;;;;;119.93;51.83;;;;;;;-1.40;100.00;94322.91;5089958;28;20719;-79
2021/12/09 01:47:58;;;;;;;125.83;52.87;;;;;;;-1.53;100.00;94306.47;5092969;28;20202;-78
2021/12/09 01:50:31;;;;;;;121.83;53.87;;;;;;;-1.52;100.00;94310.59;5092786;28;20662;-78
2021/12/09 01:52:59;;;;;;;123.20;52.53;;;;;;;-1.51;100.00;94319.84;5088767;28;20209;-79
2021/12/09 01:55:30;;;;;;;126.37;54.53;;;;;;;-1.59;100.00;94302.00;5091723;28;20232;-79
2021/12/09 01:57:58;;;;;;;128.97;53.70;;;;;;;-1.50;100.00;94306.16;5093591;28;20214;-80
2021/12/09 02:00:32;;;;;;;125.50;54.00;;;;;;;-1.43;100.00;94314.78;5093762;28;20209;-79
2021/12/09 02:03:00;;;;;;;126.80;54.00;;;;;;;-1.54;100.00;94303.13;5087668;28;20675;-78
2021/12/09 02:05:29;;;;;;;120.70;53.30;;;;;;;-1.76;100.00;94293.47;5092743;28;20593;-78
2021/12/09 02:07:58;;;;;;;127.67;54.87;;;;;;;-1.66;100.00;94288.25;5092479;28;20205;-77
2021/12/09 02:10:28;;;;;;;123.73;54.63;;;;;;;-1.48;100.00;94309.34;5092241;28;20291;-77
2021/12/09 02:12:57;;;;;;;116.80;53.23;;;;;;;-1.45;100.00;94309.03;5093072;28;20220;-77
2021/12/09 02:15:28;;;;;;;131.03;55.77;;;;;;;-1.51;100.00;94302.81;5087097;28;20728;-77
2021/12/09 02:17:58;;;;;;;134.83;57.23;;;;;;;-1.42;100.00;94306.19;5092499;28;20207;-77
2021/12/09 02:20:38;;;;;;;137.67;57.53;;;;;;;-1.46;100.00;94318.44;5092547;28;20211;-77
2021/12/09 02:23:11;;;;;;;129.10;58.03;;;;;;;-1.43;100.00;94313.03;5092203;28;20224;-77
2021/12/09 02:25:44;;;;;;;139.20;57.77;;;;;;;-1.35;100.00;94315.59;5092227;28;20287;-78
2021/12/09 02:28:19;;;;;;;133.00;56.50;;;;;;;-1.38;100.00;94326.09;5092105;28;20253;-77
2021/12/09 02:30:47;;;;;;;137.60;59.13;;;;;;;-1.38;100.00;94327.84;5085794;28;20208;-77
2021/12/09 02:33:16;;;;;;;144.47;59.70;;;;;;;-1.41;100.00;94317.97;5092516;28;20312;-78
2021/12/09 02:35:46;;;;;;;137.87;57.80;;;;;;;-1.35;100.00;94330.09;5091955;28;20272;-77
2021/12/09 02:38:15;;;;;;;130.80;57.30;;;;;;;-1.32;100.00;94325.47;5091914;28;20633;-77
2021/12/09 02:40:47;;;;;;;138.50;58.53;;;;;;;-1.34;100.00;94324.03;5091901;28;20208;-77
2021/12/09 02:43:16;;;;;;;136.23;55.93;;;;;;;-1.32;100.00;94317.03;5085732;28;20618;-78
2021/12/09 02:45:52;;;;;;;126.70;56.00;;;;;;;-1.32;100.00;94304.28;5091978;28;20288;-79
2021/12/09 02:48:22;;;;;;;125.30;54.37;;;;;;;-1.34;100.00;94312.09;5092229;28;20206;-79
2021/12/09 02:50:53;;;;;;;132.60;55.80;;;;;;;-1.39;100.00;94306.69;5085930;28;20288;-79
2021/12/09 02:53:21;;;;;;;131.00;55.10;;;;;;;-1.45;100.00;94314.94;5092038;28;20204;-79
2021/12/09 02:55:52;;;;;;;135.67;56.77;;;;;;;-1.46;100.00;94308.25;5091205;28;20224;-79
2021/12/09 02:58:19;;;;;;;123.67;53.53;;;;;;;-1.45;100.00;94299.66;5092250;28;20308;-78
2021/12/09 03:00:58;;;;;;;132.93;54.77;;;;;;;-1.40;100.00;94312.72;5092300;28;20211;-78
2021/12/09 03:03:28;;;;;;;133.03;52.83;;;;;;;-1.46;100.00;94300.59;5091951;28;20289;-78
2021/12/09 03:05:59;;;;;;;123.87;51.57;;;;;;;-1.33;100.00;94312.91;5085518;28;20197;-79
2021/12/09 03:08:36;;;;;;;117.87;52.23;;;;;;;-1.30;100.00;94325.34;5092017;28;20285;-79
2021/12/09 03:11:08;;;;;;;116.83;52.13;;;;;;;-1.33;100.00;94318.00;5093451;28;20261;-77
2021/12/09 03:13:38;;;;;;;122.20;51.87;;;;;;;-1.31;100.00;94318.63;5091571;28;20607;-77
2021/12/09 03:16:06;;;;;;;122.17;51.07;;;;;;;-1.37;100.00;94312.41;5091544;28;20212;-78
2021/12/09 03:18:41;;;;;;;118.00;51.67;;;;;;;-1.34;100.00;94316.41;5091250;28;20207;-77
2021/12/09 03:21:23;;;;;;;111.73;49.60;;;;;;;-1.29;100.00;94319.28;5091795;28;20207;-78
2021/12/09 03:23:51;;;;;;;118.07;51.90;;;;;;;-1.56;100.00;94322.88;5087097;28;20682;-78
2021/12/09 03:26:25;;;;;;;129.07;50.90;;;;;;;-1.68;100.00;94324.06;5092096;28;20203;-77
2021/12/09 03:28:54;;;;;;;121.67;52.60;;;;;;;-1.64;100.00;94327.91;5091853;28;20222;-77
2021/12/09 03:31:22;;;;;;;128.07;52.07;;;;;;;-1.64;100.00;94322.00;5091558;28;20204;-77
2021/12/09 03:33:51;;;;;;;125.93;55.30;;;;;;;-1.49;100.00;94317.94;5091475;28;20247;-78
2021/12/09 03:36:26;;;;;;;133.00;55.83;;;;;;;-1.52;100.00;94313.94;5091295;28;20208;-79
2021/12/09 03:38:57;;;;;;;137.60;57.57;;;;;;;-1.38;100.00;94323.53;5084960;28;20279;-77
2021/12/09 03:41:31;;;;;;;135.93;55.80;;;;;;;-1.41;100.00;94312.84;5091549;28;20258;-77
2021/12/09 03:43:59;;;;;;;129.60;54.63;;;;;;;-1.45;100.00;94314.94;5090873;28;20212;-77
2021/12/09 03:46:32;;;;;;;124.03;53.47;;;;;;;-1.41;100.00;94303.47;5091238;28;20727;-78
2021/12/09 03:49:02;;;;;;;114.30;51.73;;;;;;;-1.34;100.00;94299.38;5091693;28;20197;-77
2021/12/09 03:51:35;;;;;;;122.47;51.37;;;;;;;-1.29;100.00;94301.44;5091150;28;20204;-77
2021/12/09 03:54:08;;;;;;;120.27;49.97;;;;;;;-1.19;100.00;94305.47;5084642;28;20244;-78
2021/12/09 03:56:37;;;;;;;119.37;51.97;;;;;;;-1.13;100.00;94325.22;5084940;28;20207;-77
2021/12/09 03:59:13;;;;;;;120.77;54.53;;;;;;;-1.08;100.00;94322.22;5091353;28;20204;-77
2021/12/09 04:01:43;;;;;;;120.27;52.00;;;;;;;-1.03;100.00;94332.72;5091745;28;20196;-77
2021/12/09 04:04:11;;;;;;;122.07;51.97;;;;;;;-1.00;100.00;94318.88;5091090;28;20668;-77
2021/12/09 04:06:45;;;;;;;130.83;54.07;;;;;;;-1.13;100.00;94319.34;5090578;28;20208;-78
2021/12/09 04:09:16;;;;;;;126.83;59.10;;;;;;;-1.34;100.00;94322.31;5090698;28;20208;-77
2021/12/09 04:11:46;;;;;;;153.67;62.40;;;;;;;-1.27;100.00;94325.03;5090830;28;20203;-78
2021/12/09 04:14:16;;;;;;;153.20;61.93;;;;;;;-1.23;100.00;94327.13;5090230;28;20758;-78
2021/12/09 04:16:46;;;;;;;144.60;56.73;;;;;;;-1.13;100.00;94334.63;5090866;28;20200;-79
2021/12/09 04:19:17;;;;;;;134.70;56.00;;;;;;;-1.07;100.00;94334.03;5086712;28;20296;-78
2021/12/09 04:21:50;;;;;;;119.83;53.90;;;;;;;-1.07;100.00;94335.75;5089318;28;20220;-79
2021/12/09 04:24:19;;;;;;;127.93;52.67;;;;;;;-1.04;100.00;94343.91;5090636;28;21004;-78
2021/12/09 04:26:51;;;;;;;124.70;49.57;;;;;;;-1.01;100.00;94327.50;5090957;28;20219;-78
2021/12/09 04:29:23;;;;;;;150.27;67.23;;;;;;;-1.05;100.00;94327.00;5091330;28;20197;-78
2021/12/09 04:31:52;;;;;;;117.10;52.13;;;;;;;-1.09;100.00;94314.72;5084508;28;20287;-77
2021/12/09 04:34:21;;;;;;;116.53;50.67;;;;;;;-0.98;100.00;94314.44;5099267;28;20224;-77
2021/12/09 04:36:51;;;;;;;114.07;49.20;;;;;;;-0.91;100.00;94330.69;5106052;28;20302;-78
2021/12/09 04:39:19;;;;;;;125.10;51.93;;;;;;;-0.90;100.00;94340.75;5099526;28;20193;-77
2021/12/09 04:41:54;;;;;;;123.53;51.63;;;;;;;-0.86;100.00;94333.56;5102551;28;20205;-78
2021/12/09 04:44:23;;;;;;;124.20;53.60;;;;;;;-0.89;100.00;94338.97;5097177;28;20196;-78
2021/12/09 04:46:56;;;;;;;128.17;53.33;;;;;;;-0.86;100.00;94334.38;5088795;28;20833;-78
2021/12/09 04:49:24;;;;;;;118.10;50.30;;;;;;;-0.80;100.00;94341.38;5088991;28;20197;-77
2021/12/09 04:51:57;;;;;;;123.27;50.73;;;;;;;-0.83;100.00;94351.09;5087123;28;20228;-78
2021/12/09 04:54:25;;;;;;;106.30;49.40;;;;;;;-0.81;100.00;94354.31;5089469;28;20243;-78
2021/12/09 04:56:54;;;;;;;115.67;49.23;;;;;;;-0.83;100.00;94351.09;5090685;28;20200;-77
2021/12/09 04:59:24;;;;;;;111.17;48.97;;;;;;;-0.86;100.00;94346.31;5090107;28;20208;-78
2021/12/09 05:01:52;;;;;;;109.43;48.40;;;;;;;-0.85;100.00;94342.81;5090863;28;20201;-77
2021/12/09 05:04:20;;;;;;;120.43;50.20;;;;;;;-0.85;100.00;94342.81;5090001;28;20281;-72
2021/12/09 05:06:48;;;;;;;113.30;49.83;;;;;;;-0.84;100.00;94336.78;5090302;28;20208;-72
2021/12/09 05:09:19;;;;;;;114.37;49.50;;;;;;;-0.76;100.00;94345.25;5089731;28;20724;-73
2021/12/09 05:11:50;;;;;;;113.17;49.50;;;;;;;-0.67;100.00;94356.25;5089562;28;20287;-72
2021/12/09 05:14:27;;;;;;;114.50;48.77;;;;;;;-0.66;100.00;94345.06;5093696;28;20213;-73
2021/12/09 05:16:55;;;;;;;122.37;53.03;;;;;;;-0.65;100.00;94354.34;5078382;28;20200;-73
2021/12/09 05:19:24;;;;;;;125.13;52.17;;;;;;;-0.66;100.00;94345.88;5083153;28;20200;-73
2021/12/09 05:21:54;;;;;;;123.03;51.90;;;;;;;-0.79;100.00;94348.09;5082614;28;20196;-73
2021/12/09 05:24:26;;;;;;;123.47;53.97;;;;;;;-0.59;100.00;94346.06;5092291;28;20208;-72
2021/12/09 05:26:56;;;;;;;124.33;53.90;;;;;;;-0.65;100.00;94349.22;5092568;28;20288;-75
2021/12/09 05:29:30;;;;;;;86.93;39.90;;;;;;;-0.47;100.00;94357.56;5092918;28;20674;-74
2021/12/09 05:32:10;;;;;;;85.47;40.23;;;;;;;-0.49;100.00;94359.44;5093317;28;20287;-74
2021/12/09 05:34:40;;;;;;;85.60;39.73;;;;;;;-0.47;100.00;94352.44;5088722;28;20225;-74
2021/12/09 05:37:10;;;;;;;107.77;44.50;;;;;;;-0.43;100.00;94345.28;5092946;28;20197;-74
2021/12/09 05:39:41;;;;;;;95.50;43.30;;;;;;;-0.42;100.00;94347.66;5093218;28;20578;-73
2021/12/09 05:42:12;;;;;;;102.03;46.17;;;;;;;-0.55;100.00;94328.69;5092619;28;20236;-74
2021/12/09 05:44:40;;;;;;;99.33;46.10;;;;;;;-0.41;100.00;94351.81;5093080;28;20955;-73
2021/12/09 05:47:12;;;;;;;100.70;44.77;;;;;;;-0.43;100.00;94358.03;5095576;28;20204;-73
2021/12/09 05:49:43;;;;;;;90.77;42.17;;;;;;;-0.36;100.00;94362.34;5098433;28;20200;-73
2021/12/09 05:52:11;;;;;;;97.37;44.67;;;;;;;-0.28;100.00;94359.78;5094517;28;20236;-73
2021/12/09 05:54:41;;;;;;;99.00;42.47;;;;;;;-0.27;100.00;94358.84;5093889;28;20236;-73
2021/12/09 05:57:09;;;;;;;105.60;43.53;;;;;;;-0.26;100.00;94360.41;5095449;28;20234;-74
2021/12/09 05:59:40;;;;;;;100.13;44.63;;;;;;;-0.23;100.00;94372.84;5100104;28;20247;-73
2021/12/09 06:02:10;;;;;;;100.97;46.40;;;;;;;-0.22;100.00;94360.91;5096970;28;20197;-73
2021/12/09 06:04:44;;;;;;;105.03;47.73;;;;;;;-0.15;100.00;94366.97;5089054;28;20779;-82
2021/12/09 06:07:14;;;;;;;97.10;44.83;;;;;;;-0.20;100.00;94356.41;5095727;28;20181;-73
2021/12/09 06:09:44;;;;;;;98.07;44.03;;;;;;;-0.12;100.00;94361.53;5092134;28;20201;-73
2021/12/09 06:12:13;;;;;;;90.70;43.37;;;;;;;-0.14;100.00;94364.25;5090833;28;20197;-73
2021/12/09 06:14:41;;;;;;;86.87;42.00;;;;;;;-0.21;100.00;94370.16;5082348;28;20246;-74
2021/12/09 06:17:09;;;;;;;90.40;42.33;;;;;;;-0.20;100.00;94364.06;5091318;28;20228;-73
2021/12/09 06:19:37;;;;;;;94.60;43.30;;;;;;;-0.11;100.00;94371.59;5082702;28;20987;-72
2021/12/09 06:22:05;;;;;;;91.43;44.13;;;;;;;-0.08;100.00;94376.38;5090084;28;20208;-72
2021/12/09 06:24:34;;;;;;;90.77;42.47;;;;;;;-0.11;100.00;94384.34;5090889;28;20199;-73
2021/12/09 06:27:04;;;;;;;87.60;39.97;;;;;;;-0.12;100.00;94381.97;5090032;28;20272;-73
2021/12/09 06:29:33;;;;;;;84.90;42.53;;;;;;;-0.06;100.00;94377.00;5089444;28;20193;-71
2021/12/09 06:32:03;;;;;;;82.23;39.60;;;;;;;-0.03;100.00;94375.91;5090526;28;20201;-71
2021/12/09 06:34:32;;;;;;;84.43;40.40;;;;;;;-0.08;100.00;94384.03;5090413;28;20571;-72
2021/12/09 06:37:00;;;;;;;82.70;40.53;;;;;;;-0.09;100.00;94386.75;5088575;28;20806;-71
2021/12/09 06:39:28;;;;;;;84.73;41.23;;;;;;;-0.06;100.00;94379.56;5089545;28;20680;-70
2021/12/09 06:41:58;;;;;;;88.93;41.50;;;;;;;-0.09;100.00;94386.75;5090017;28;20200;-70
2021/12/09 06:44:28;;;;;;;101.30;43.83;;;;;;;-0.02;100.00;94377.50;5088237;28;20576;-71
2021/12/09 06:46:56;;;;;;;103.63;46.93;;;;;;;0.03;100.00;94380.34;5090125;28;20196;-71
2021/12/09 06:49:24;;;;;;;107.57;47.40;;;;;;;0.03;100.00;94372.69;5089371;28;20644;-73
2021/12/09 06:51:53;;;;;;;105.90;48.03;;;;;;;0.04;100.00;94365.81;5090256;28;20193;-73
2021/12/09 06:54:22;;;;;;;111.87;50.63;;;;;;;-0.02;100.00;94362.16;5088444;28;20315;-78
2021/12/09 06:56:50;;;;;;;102.03;47.60;;;;;;;-0.01;100.00;94377.34;5090694;28;20211;-78
2021/12/09 06:59:18;;;;;;;111.20;51.00;;;;;;;-0.09;100.00;94367.09;5089035;28;20434;-78
2021/12/09 07:01:49;;;;;;;123.17;52.60;;;;;;;-0.05;100.00;94365.03;5085091;28;20204;-78
2021/12/09 07:04:17;;;;;;;122.77;53.03;;;;;;;-0.06;100.00;94376.22;5090521;28;20640;-78
2021/12/09 07:06:46;;;;;;;118.53;52.60;;;;;;;-0.13;100.00;94359.94;5090678;28;20208;-78
2021/12/09 07:09:18;;;;;;;125.27;53.47;;;;;;;-0.01;100.00;94368.88;5090614;28;20285;-77
2021/12/09 07:11:50;;;;;;;132.57;53.63;;;;;;;-0.02;100.00;94355.31;5084096;28;20201;-78
2021/12/09 07:14:18;;;;;;;129.07;54.33;;;;;;;0.16;100.00;94362.00;5090541;28;20283;-78
2021/12/09 07:16:49;;;;;;;125.23;53.80;;;;;;;0.13;100.00;94367.41;5090769;28;20280;-77
2021/12/09 07:19:19;;;;;;;127.23;54.30;;;;;;;0.10;100.00;94360.88;5091321;28;20201;-77
2021/12/09 07:21:47;;;;;;;120.07;52.53;;;;;;;0.06;100.00;94377.47;5088465;28;20200;-77
2021/12/09 07:24:20;;;;;;;126.60;52.60;;;;;;;0.03;100.00;94370.13;5091653;28;20193;-78
2021/12/09 07:26:49;;;;;;;124.60;53.17;;;;;;;0.05;100.00;94375.91;5091503;28;20280;-77
2021/12/09 07:29:17;;;;;;;119.87;51.73;;;;;;;0.12;100.00;94364.06;5091564;28;20200;-78
2021/12/09 07:31:45;;;;;;;125.77;53.23;;;;;;;0.17;100.00;94366.16;5092305;28;20205;-78
2021/12/09 07:34:17;;;;;;;117.43;50.23;;;;;;;0.11;100.00;94354.03;5091771;28;20224;-78
2021/12/09 07:36:50;;;;;;;127.50;51.40;;;;;;;-0.06;100.00;94340.47;5098090;28;20249;-78
2021/12/09 07:39:19;;;;;;;126.87;50.27;;;;;;;-0.04;100.00;94358.97;5091764;28;20210;-78
2021/12/09 07:41:47;;;;;;;121.63;49.47;;;;;;;0.04;100.00;94361.53;5090865;28;20297;-79
2021/12/09 07:44:17;;;;;;;119.07;50.50;;;;;;;0.06;100.00;94354.50;5090783;28;20250;-78
2021/12/09 07:46:48;;;;;;;121.40;49.87;;;;;;;0.13;100.00;94363.13;5090958;28;20291;-83
2021/12/09 07:49:19;;;;;;;123.93;50.27;;;;;;;0.14;100.00;94366.47;5084384;28;20292;-81
2021/12/09 07:51:49;;;;;;;117.63;50.87;;;;;;;0.24;100.00;94359.41;5084860;28;20288;-80
2021/12/09 07:54:17;;;;;;;112.57;47.07;;;;;;;0.17;100.00;94338.06;5084252;28;20668;-82
2021/12/09 07:56:46;;;;;;;114.03;46.07;;;;;;;0.31;100.00;94352.72;5090579;28;20200;-82
2021/12/09 07:59:17;;;;;;;114.80;47.10;;;;;;;0.37;100.00;94349.50;5090632;28;20663;-82
2021/12/09 08:01:48;;;;;;;110.23;46.17;;;;;;;0.34;100.00;94370.28;5090551;28;20240;-81
2021/12/09 08:04:19;;;;;;;117.83;48.37;;;;;;;0.22;100.00;94346.00;5090738;28;20285;-82
2021/12/09 08:06:48;;;;;;;118.37;50.33;;;;;;;0.29;100.00;94352.09;5091206;28;20208;-81
2021/12/09 08:09:17;;;;;;;127.10;50.30;;;;;;;0.43;100.00;94346.28;5090111;28;20204;-80
2021/12/09 08:11:47;;;;;;;110.33;44.43;;;;;;;0.50;100.00;94335.25;5090367;28;20215;-82
2021/12/09 08:14:16;;;;;;;110.40;45.97;;;;;;;0.63;100.00;94354.38;5089813;28;20229;-80
2021/12/09 08:16:56;;;;;;;113.40;45.80;;;;;;;0.62;100.00;94353.56;5090213;28;20197;-81
2021/12/09 08:19:25;;;;;;;112.20;45.23;;;;;;;0.71;100.00;94355.16;5086446;28;20733;-81
2021/12/09 08:21:54;;;;;;;106.63;44.43;;;;;;;0.73;100.00;94350.66;5088377;28;20205;-81
2021/12/09 08:24:22;;;;;;;107.63;44.47;;;;;;;0.69;100.00;94349.41;5091643;28;20201;-84
2021/12/09 08:26:51;;;;;;;109.97;43.00;;;;;;;0.75;100.00;94365.84;5090625;28;20211;-80
2021/12/09 08:29:20;;;;;;;101.53;43.13;;;;;;;0.77;100.00;94369.03;5090876;28;20837;-79
2021/12/09 08:31:49;;;;;;;105.60;42.80;;;;;;;0.77;100.00;94366.47;5087902;28;20201;-80
2021/12/09 08:34:18;;;;;;;98.20;42.07;;;;;;;0.81;100.00;94360.84;5085467;28;20253;-83
2021/12/09 08:37:26;;;;;;;105.77;41.87;;;;;;;0.77;100.00;94348.56;5092697;28;20196;-77
2021/12/09 08:40:01;;;;;;;106.57;43.13;;;;;;;0.78;100.00;94352.72;5085896;28;20193;-78
2021/12/09 08:42:32;;;;;;;120.63;47.63;;;;;;;0.80;100.00;94331.16;5083722;28;20206;-77
2021/12/09 08:45:09;;;;;;;104.10;44.13;;;;;;;1.02;100.00;94358.53;5090928;28;20204;-75
2021/12/09 08:47:42;;;;;;;110.70;44.17;;;;;;;1.07;100.00;94350.34;5089862;28;20214;-75
2021/12/09 08:50:15;;;;;;;100.50;42.40;;;;;;;1.11;100.00;94324.28;5089692;28;20210;-75
2021/12/09 08:52:45;;;;;;;113.13;44.13;;;;;;;1.09;100.00;94330.53;5091074;28;20240;-76
2021/12/09 08:55:13;;;;;;;99.27;42.40;;;;;;;1.19;100.00;94333.66;5092214;28;20235;-76
2021/12/09 08:58:00;;;;;;;107.23;42.77;;;;;;;1.20;100.00;94348.03;5094100;28;20211;-77
2021/12/09 09:00:31;;;;;;;110.97;44.43;;;;;;;1.15;100.00;94322.19;5094157;28;20200;-77
2021/12/09 09:03:01;;;;;;;107.27;43.30;;;;;;;1.13;100.00;94321.53;5092801;28;20254;-76
2021/12/09 09:05:32;;;;;;;98.27;42.90;;;;;;;1.11;100.00;94326.03;5093718;28;20664;-76
2021/12/09 09:08:04;;;;;;;103.07;42.17;;;;;;;1.29;100.00;94308.66;5094460;28;20198;-76
2021/12/09 09:10:35;;;;;;;94.53;41.47;;;;;;;1.32;100.00;94313.44;5093674;28;20200;-76
2021/12/09 09:13:04;;;;;;;100.53;42.17;;;;;;;1.39;100.00;94316.09;5093316;28;20200;-76
2021/12/09 09:15:36;;;;;;;92.67;41.93;;;;;;;1.54;100.00;94322.06;5094484;28;20239;-76
2021/12/09 09:18:06;;;;;;;92.13;41.37;;;;;;;1.54;100.00;94293.91;5088067;28;20207;-76
2021/12/09 09:20:39;;;;;;;106.33;43.37;;;;;;;1.66;100.00;94283.09;5086187;28;20236;-76
2021/12/09 09:23:12;;;;;;;104.80;43.70;;;;;;;1.38;100.00;94292.28;5093199;28;20325;-75
2021/12/09 09:25:42;;;;;;;105.13;42.67;;;;;;;1.36;100.00;94288.28;5093016;28;20677;-84
2021/12/09 09:28:11;;;;;;;94.70;42.03;;;;;;;1.32;100.00;94279.34;5093558;28;20208;-78
2021/12/09 09:30:43;;;;;;;96.33;41.90;;;;;;;1.21;100.00;94280.56;5093294;28;20715;-77
2021/12/09 09:33:15;;;;;;;100.93;43.40;;;;;;;1.43;100.00;94278.97;5093430;28;20636;-81
2021/12/09 09:35:45;;;;;;;99.70;41.37;;;;;;;1.54;100.00;94294.72;5092394;28;20301;-82
2021/12/09 09:38:18;;;;;;;92.07;42.20;;;;;;;1.75;100.00;94281.25;5092944;28;20258;-77
2021/12/09 09:40:51;;;;;;;102.60;44.23;;;;;;;2.02;100.00;94282.47;5092128;28;20216;-76
2021/12/09 09:43:32;;;;;;;100.63;42.83;;;;;;;2.30;100.00;94275.75;5092487;28;20252;-75
2021/12/09 09:46:04;;;;;;;98.77;42.27;;;;;;;2.45;100.00;94281.69;5092518;28;20200;-77
2021/12/09 09:48:35;;;;;;;97.77;41.30;;;;;;;2.69;100.00;94273.69;5092318;28;20200;-75
2021/12/09 09:51:04;;;;;;;92.33;40.67;;;;;;;3.15;100.00;94255.44;5092684;28;20210;-76
2021/12/09 09:53:36;;;;;;;90.17;40.23;;;;;;;3.78;100.00;94268.25;5091936;28;20203;-78
2021/12/09 09:56:13;;;;;;;95.27;41.93;;;;;;;4.49;99.49;94266.34;5092208;28;20215;-77
2021/12/09 09:58:44;;;;;;;89.60;40.77;;;;;;;5.27;93.52;94234.94;5092748;28;20684;-76
2021/12/09 10:01:14;;;;;;;88.00;41.40;;;;;;;6.76;90.10;94250.50;5092241;28;20811;-75
2021/12/09 10:03:47;;;;;;;81.80;41.63;;;;;;;7.86;82.98;94264.78;5092906;28;20219;-77
2021/12/09 10:06:16;;;;;;;91.53;43.57;;;;;;;8.29;78.92;94249.31;5085679;28;20273;-76
2021/12/09 10:08:48;;;;;;;93.43;43.13;;;;;;;8.62;78.12;94270.53;5092528;28;20587;-75
2021/12/09 10:11:18;;;;;;;93.50;44.93;;;;;;;8.62;77.49;94261.97;5092125;28;20582;-76
2021/12/09 10:13:46;;;;;;;96.60;47.43;;;;;;;8.86;76.99;94243.72;5091300;28;20209;-83
2021/12/09 10:16:20;;;;;;;98.90;47.30;;;;;;;9.05;75.28;94258.28;5093016;28;20235;-77
2021/12/09 10:18:54;;;;;;;100.13;48.60;;;;;;;9.23;74.60;94256.66;5092090;28;20631;-78
2021/12/09 10:21:24;;;;;;;96.67;48.23;;;;;;;9.20;72.74;94259.69;5084034;28;20204;-75
2021/12/09 10:24:01;;;;;;;95.80;47.93;;;;;;;8.81;74.09;94259.16;5091628;28;20283;-76
2021/12/09 10:26:30;;;;;;;95.83;47.33;;;;;;;8.20;75.63;94248.78;5086744;28;20235;-76
2021/12/09 10:29:07;;;;;;;99.03;47.80;;;;;;;8.05;76.74;94232.81;5091942;28;20207;-76
2021/12/09 10:31:41;;;;;;;106.90;50.77;;;;;;;8.14;78.68;94252.22;5090125;28;20212;-76
2021/12/09 10:34:31;;;;;;;107.13;51.43;;;;;;;8.24;76.48;94262.09;5092239;28;20239;-76
2021/12/09 10:37:03;;;;;;;110.80;52.27;;;;;;;8.00;76.95;94238.59;5092440;28;20689;-76
2021/12/09 10:39:48;;;;;;;112.83;53.63;;;;;;;7.75;79.83;94231.84;5089756;28;20208;-76
2021/12/09 10:42:19;;;;;;;117.87;53.80;;;;;;;7.71;78.55;94241.81;5089495;28;20256;-76
2021/12/09 10:44:59;;;;;;;112.23;53.30;;;;;;;8.05;78.83;94200.97;5092182;28;20196;-76
2021/12/09 10:47:48;;;;;;;113.97;54.07;;;;;;;8.54;77.97;94245.69;5092411;28;20199;-76
2021/12/09 10:50:27;;;;;;;119.90;55.90;;;;;;;9.14;75.74;94222.47;5091731;28;20290;-76
2021/12/09 10:53:01;;;;;;;114.33;54.63;;;;;;;9.32;75.67;94225.00;5091692;28;20213;-76
2021/12/09 10:55:34;;;;;;;115.10;55.27;;;;;;;9.26;74.59;94204.38;5091767;28;20266;-75
2021/12/09 10:58:10;;;;;;;117.27;56.27;;;;;;;8.94;74.96;94233.09;5092046;28;20283;-76
2021/12/09 11:00:42;;;;;;;113.40;56.63;;;;;;;8.95;75.90;94200.97;5091097;28;20667;-75
2021/12/09 11:03:18;;;;;;;113.63;56.47;;;;;;;9.08;76.35;94228.53;5091478;28;20325;-76
2021/12/09 11:05:49;;;;;;;133.83;59.40;;;;;;;9.14;75.56;94193.97;5084554;28;20207;-75
2021/12/09 11:08:26;;;;;;;126.23;58.37;;;;;;;9.16;75.25;94211.88;5091152;28;20200;-76
2021/12/09 11:11:00;;;;;;;119.03;55.30;;;;;;;9.84;75.07;94204.50;5091888;28;20200;-76
2021/12/09 11:13:38;;;;;;;114.43;56.87;;;;;;;9.98;72.71;94200.69;5091691;28;20319;-75
2021/12/09 11:16:06;;;;;;;128.43;62.10;;;;;;;9.84;72.46;94201.91;5090466;28;20701;-75
2021/12/09 11:18:39;;;;;;;131.77;64.63;;;;;;;9.48;74.11;94206.25;5090769;28;20204;-74
2021/12/09 11:21:16;;;;;;;131.43;63.67;;;;;;;9.08;75.75;94213.78;5090784;28;20239;-75
2021/12/09 11:23:49;;;;;;;129.53;62.17;;;;;;;8.79;76.07;94208.56;5088579;28;20275;-75
2021/12/09 11:26:32;;;;;;;129.17;64.30;;;;;;;8.43;78.41;94207.56;5084304;28;20209;-74